sensor_id;sensor_type;location;lat;lon;timestamp;temperature;humidity
18807;DHT22;9531;52.030;4.380;2023-04-03T00:00:30;5.80;99.90
18807;DHT22;9531;52.030;4.380;2023-04-03T00:02:57;5.70;99.90
18807;DHT22;9531;52.030;4.380;2023-04-03T00:05:24;5.70;99.90
18807;DHT22;9531;52.030;4.380;2023-04-03T00:07:50;5.70;99.90
18807;DHT22;9531;52.030;4.380;2023-04-03T00:10:18;5.60;99.90
18807;DHT22;9531;52.030;4.380;2023-04-03T00:12:46;5.60;99.90
18807;DHT22;9531;52.030;4.380;2023-04-03T00:15:13;5.60;99.90
18807;DHT22;9531;52.030;4.380;2023-04-03T00:17:42;5.50;99.90
18807;DHT22;9531;52.030;4.380;2023-04-03T00:20:09;5.50;99.90
18807;DHT22;9531;52.030;4.380;2023-04-03T00:22:36;5.50;99.90
18807;DHT22;9531;52.030;4.380;2023-04-03T00:25:05;5.40;99.90
18807;DHT22;9531;52.030;4.380;2023-04-03T00:27:32;5.40;99.90
18807;DHT22;9531;52.030;4.380;2023-04-03T00:30:00;5.40;99.90
18807;DHT22;9531;52.030;4.380;2023-04-03T00:32:27;5.30;99.90
18807;DHT22;9531;52.030;4.380;2023-04-03T00:34:55;5.30;99.90
18807;DHT22;9531;52.030;4.380;2023-04-03T00:37:22;5.30;99.90
18807;DHT22;9531;52.030;4.380;2023-04-03T00:39:49;5.30;99.90
18807;DHT22;9531;52.030;4.380;2023-04-03T00:42:16;5.30;99.90
18807;DHT22;9531;52.030;4.380;2023-04-03T00:47:49;5.10;99.90
18807;DHT22;9531;52.030;4.380;2023-04-03T00:50:17;5.10;99.90
18807;DHT22;9531;52.030;4.380;2023-04-03T00:52:44;5.10;99.90
18807;DHT22;9531;52.030;4.380;2023-04-03T00:55:15;5.00;99.90
18807;DHT22;9531;52.030;4.380;2023-04-03T00:57:42;5.00;99.90
18807;DHT22;9531;52.030;4.380;2023-04-03T01:00:13;5.00;99.90
18807;DHT22;9531;52.030;4.380;2023-04-03T01:02:42;5.00;99.90
18807;DHT22;9531;52.030;4.380;2023-04-03T01:05:10;5.00;99.90
18807;DHT22;9531;52.030;4.380;2023-04-03T01:07:38;4.90;99.90
18807;DHT22;9531;52.030;4.380;2023-04-03T01:10:09;4.90;99.90
18807;DHT22;9531;52.030;4.380;2023-04-03T01:12:40;4.90;99.90
18807;DHT22;9531;52.030;4.380;2023-04-03T01:15:09;4.80;99.90
18807;DHT22;9531;52.030;4.380;2023-04-03T01:17:38;4.80;99.90
18807;DHT22;9531;52.030;4.380;2023-04-03T01:23:25;4.80;99.90
18807;DHT22;9531;52.030;4.380;2023-04-03T01:25:56;4.70;99.90
18807;DHT22;9531;52.030;4.380;2023-04-03T01:28:26;4.70;99.90
18807;DHT22;9531;52.030;4.380;2023-04-03T01:30:59;4.60;99.90
18807;DHT22;9531;52.030;4.380;2023-04-03T01:33:29;4.60;99.90
18807;DHT22;9531;52.030;4.380;2023-04-03T01:35:56;4.60;99.90
18807;DHT22;9531;52.030;4.380;2023-04-03T01:38:23;4.50;99.90
18807;DHT22;9531;52.030;4.380;2023-04-03T01:40:51;4.50;99.90
18807;DHT22;9531;52.030;4.380;2023-04-03T01:43:18;4.50;99.90
18807;DHT22;9531;52.030;4.380;2023-04-03T01:45:44;4.50;99.90
18807;DHT22;9531;52.030;4.380;2023-04-03T01:48:12;4.40;99.90
18807;DHT22;9531;52.030;4.380;2023-04-03T01:50:41;4.40;99.90
18807;DHT22;9531;52.030;4.380;2023-04-03T01:53:08;4.40;99.90
18807;DHT22;9531;52.030;4.380;2023-04-03T01:55:37;4.40;99.90
18807;DHT22;9531;52.030;4.380;2023-04-03T01:58:04;4.30;99.90
18807;DHT22;9531;52.030;4.380;2023-04-03T02:00:31;4.30;99.90
18807;DHT22;9531;52.030;4.380;2023-04-03T02:02:57;4.30;99.90
18807;DHT22;9531;52.030;4.380;2023-04-03T02:05:24;4.20;99.90
18807;DHT22;9531;52.030;4.380;2023-04-03T02:07:53;4.20;99.90
18807;DHT22;9531;52.030;4.380;2023-04-03T02:10:20;4.20;99.90
18807;DHT22;9531;52.030;4.380;2023-04-03T02:12:47;4.20;99.90
18807;DHT22;9531;52.030;4.380;2023-04-03T02:15:14;4.10;99.90
18807;DHT22;9531;52.030;4.380;2023-04-03T02:17:41;4.10;99.90
18807;DHT22;9531;52.030;4.380;2023-04-03T02:20:08;4.10;99.90
18807;DHT22;9531;52.030;4.380;2023-04-03T02:22:35;4.10;99.90
18807;DHT22;9531;52.030;4.380;2023-04-03T02:25:04;4.00;99.90
18807;DHT22;9531;52.030;4.380;2023-04-03T02:27:31;4.00;99.90
18807;DHT22;9531;52.030;4.380;2023-04-03T02:29:58;4.00;99.90
18807;DHT22;9531;52.030;4.380;2023-04-03T02:32:25;4.00;99.90
18807;DHT22;9531;52.030;4.380;2023-04-03T02:34:53;3.90;99.90
18807;DHT22;9531;52.030;4.380;2023-04-03T02:37:20;3.90;99.90
18807;DHT22;9531;52.030;4.380;2023-04-03T02:39:47;3.90;99.90
18807;DHT22;9531;52.030;4.380;2023-04-03T02:42:15;3.80;99.90
18807;DHT22;9531;52.030;4.380;2023-04-03T02:44:42;3.80;99.90
18807;DHT22;9531;52.030;4.380;2023-04-03T02:47:10;3.80;99.90
18807;DHT22;9531;52.030;4.380;2023-04-03T02:49:38;3.80;99.90
18807;DHT22;9531;52.030;4.380;2023-04-03T02:52:04;3.70;99.90
18807;DHT22;9531;52.030;4.380;2023-04-03T02:54:31;3.70;99.90
18807;DHT22;9531;52.030;4.380;2023-04-03T02:56:58;3.70;99.90
18807;DHT22;9531;52.030;4.380;2023-04-03T02:59:26;3.70;99.90
18807;DHT22;9531;52.030;4.380;2023-04-03T03:01:53;3.70;99.90
18807;DHT22;9531;52.030;4.380;2023-04-03T03:04:21;3.60;99.90
18807;DHT22;9531;52.030;4.380;2023-04-03T03:06:48;3.60;99.90
18807;DHT22;9531;52.030;4.380;2023-04-03T03:09:15;3.60;99.90
18807;DHT22;9531;52.030;4.380;2023-04-03T03:11:42;3.60;99.90
18807;DHT22;9531;52.030;4.380;2023-04-03T03:14:09;3.50;99.90
18807;DHT22;9531;52.030;4.380;2023-04-03T03:16:37;3.50;99.90
18807;DHT22;9531;52.030;4.380;2023-04-03T03:19:04;3.50;99.90
18807;DHT22;9531;52.030;4.380;2023-04-03T03:21:32;3.40;99.90
18807;DHT22;9531;52.030;4.380;2023-04-03T03:23:59;3.50;99.90
18807;DHT22;9531;52.030;4.380;2023-04-03T03:26:27;3.40;99.90
18807;DHT22;9531;52.030;4.380;2023-04-03T03:28:54;3.40;99.90
18807;DHT22;9531;52.030;4.380;2023-04-03T03:31:20;3.30;99.90
18807;DHT22;9531;52.030;4.380;2023-04-03T03:33:49;3.40;99.90
18807;DHT22;9531;52.030;4.380;2023-04-03T03:36:16;3.40;99.90
18807;DHT22;9531;52.030;4.380;2023-04-03T03:38:43;3.30;99.90
18807;DHT22;9531;52.030;4.380;2023-04-03T03:41:09;3.30;99.90
18807;DHT22;9531;52.030;4.380;2023-04-03T03:43:36;3.30;99.90
18807;DHT22;9531;52.030;4.380;2023-04-03T03:46:03;3.20;99.90
18807;DHT22;9531;52.030;4.380;2023-04-03T03:48:30;3.20;99.90
18807;DHT22;9531;52.030;4.380;2023-04-03T03:50:58;3.20;99.90
18807;DHT22;9531;52.030;4.380;2023-04-03T03:53:25;3.20;99.90
18807;DHT22;9531;52.030;4.380;2023-04-03T03:55:52;3.10;99.90
18807;DHT22;9531;52.030;4.380;2023-04-03T03:58:19;3.10;99.90
18807;DHT22;9531;52.030;4.380;2023-04-03T04:00:46;3.10;99.90
18807;DHT22;9531;52.030;4.380;2023-04-03T04:03:13;3.10;99.90
18807;DHT22;9531;52.030;4.380;2023-04-03T04:05:40;3.10;99.90
18807;DHT22;9531;52.030;4.380;2023-04-03T04:08:09;3.10;99.90
18807;DHT22;9531;52.030;4.380;2023-04-03T04:10:37;3.10;99.90
18807;DHT22;9531;52.030;4.380;2023-04-03T04:13:04;3.10;99.90
18807;DHT22;9531;52.030;4.380;2023-04-03T04:15:31;3.00;99.90
18807;DHT22;9531;52.030;4.380;2023-04-03T04:17:58;3.00;99.90
18807;DHT22;9531;52.030;4.380;2023-04-03T04:20:25;3.00;99.90
18807;DHT22;9531;52.030;4.380;2023-04-03T04:22:52;3.00;99.90
18807;DHT22;9531;52.030;4.380;2023-04-03T04:25:21;2.90;99.90
18807;DHT22;9531;52.030;4.380;2023-04-03T04:27:48;2.90;99.90
18807;DHT22;9531;52.030;4.380;2023-04-03T04:30:14;2.90;99.90
18807;DHT22;9531;52.030;4.380;2023-04-03T04:32:41;2.90;99.90
18807;DHT22;9531;52.030;4.380;2023-04-03T04:35:08;2.90;99.90
18807;DHT22;9531;52.030;4.380;2023-04-03T04:37:35;2.80;99.90
18807;DHT22;9531;52.030;4.380;2023-04-03T04:40:03;2.80;99.90
18807;DHT22;9531;52.030;4.380;2023-04-03T04:42:31;2.80;99.90
18807;DHT22;9531;52.030;4.380;2023-04-03T04:44:58;2.80;99.90
18807;DHT22;9531;52.030;4.380;2023-04-03T04:47:25;2.80;99.90
18807;DHT22;9531;52.030;4.380;2023-04-03T04:49:52;2.70;99.90
18807;DHT22;9531;52.030;4.380;2023-04-03T04:52:19;2.70;99.90
18807;DHT22;9531;52.030;4.380;2023-04-03T04:54:46;2.70;99.90
18807;DHT22;9531;52.030;4.380;2023-04-03T04:57:13;2.70;99.90
18807;DHT22;9531;52.030;4.380;2023-04-03T04:59:42;2.70;99.90
18807;DHT22;9531;52.030;4.380;2023-04-03T05:02:09;2.70;99.90
18807;DHT22;9531;52.030;4.380;2023-04-03T05:04:36;2.60;99.90
18807;DHT22;9531;52.030;4.380;2023-04-03T05:07:03;2.60;99.90
18807;DHT22;9531;52.030;4.380;2023-04-03T05:09:31;2.60;99.90
18807;DHT22;9531;52.030;4.380;2023-04-03T05:11:58;2.60;99.90
18807;DHT22;9531;52.030;4.380;2023-04-03T05:14:25;2.60;99.90
18807;DHT22;9531;52.030;4.380;2023-04-03T05:16:54;2.60;99.90
18807;DHT22;9531;52.030;4.380;2023-04-03T05:19:22;2.50;99.90
18807;DHT22;9531;52.030;4.380;2023-04-03T05:21:49;2.50;99.90
18807;DHT22;9531;52.030;4.380;2023-04-03T05:24:16;2.50;99.90
18807;DHT22;9531;52.030;4.380;2023-04-03T05:26:43;2.50;99.90
18807;DHT22;9531;52.030;4.380;2023-04-03T05:29:11;2.50;99.90
18807;DHT22;9531;52.030;4.380;2023-04-03T05:31:37;2.50;99.90
18807;DHT22;9531;52.030;4.380;2023-04-03T05:34:06;2.50;99.90
18807;DHT22;9531;52.030;4.380;2023-04-03T05:36:33;2.50;99.90
18807;DHT22;9531;52.030;4.380;2023-04-03T05:38:59;2.50;99.90
18807;DHT22;9531;52.030;4.380;2023-04-03T05:41:26;2.50;99.90
18807;DHT22;9531;52.030;4.380;2023-04-03T05:43:53;2.50;99.90
18807;DHT22;9531;52.030;4.380;2023-04-03T05:46:20;2.40;99.90
18807;DHT22;9531;52.030;4.380;2023-04-03T05:48:47;2.50;99.90
18807;DHT22;9531;52.030;4.380;2023-04-03T05:51:17;2.50;99.90
18807;DHT22;9531;52.030;4.380;2023-04-03T05:53:45;2.50;99.90
18807;DHT22;9531;52.030;4.380;2023-04-03T05:56:13;2.50;99.90
18807;DHT22;9531;52.030;4.380;2023-04-03T05:58:40;2.50;99.90
18807;DHT22;9531;52.030;4.380;2023-04-03T06:01:07;2.50;99.90
18807;DHT22;9531;52.030;4.380;2023-04-03T06:03:34;2.60;99.90
18807;DHT22;9531;52.030;4.380;2023-04-03T06:06:04;2.70;99.90
18807;DHT22;9531;52.030;4.380;2023-04-03T06:08:34;2.90;99.90
18807;DHT22;9531;52.030;4.380;2023-04-03T06:11:01;3.10;99.90
18807;DHT22;9531;52.030;4.380;2023-04-03T06:13:28;3.40;99.90
18807;DHT22;9531;52.030;4.380;2023-04-03T06:15:55;3.70;99.90
18807;DHT22;9531;52.030;4.380;2023-04-03T06:18:23;4.10;99.90
18807;DHT22;9531;52.030;4.380;2023-04-03T06:20:50;4.50;99.90
18807;DHT22;9531;52.030;4.380;2023-04-03T06:23:17;5.00;99.90
18807;DHT22;9531;52.030;4.380;2023-04-03T06:25:45;5.40;99.90
18807;DHT22;9531;52.030;4.380;2023-04-03T06:28:12;5.90;99.90
18807;DHT22;9531;52.030;4.380;2023-04-03T06:30:39;6.40;99.90
18807;DHT22;9531;52.030;4.380;2023-04-03T06:33:06;6.80;99.90
18807;DHT22;9531;52.030;4.380;2023-04-03T06:35:33;7.30;99.90
18807;DHT22;9531;52.030;4.380;2023-04-03T06:38:00;7.70;99.90
18807;DHT22;9531;52.030;4.380;2023-04-03T06:40:29;8.10;99.90
18807;DHT22;9531;52.030;4.380;2023-04-03T06:42:58;8.50;99.90
18807;DHT22;9531;52.030;4.380;2023-04-03T06:45:28;8.80;99.90
18807;DHT22;9531;52.030;4.380;2023-04-03T06:47:55;9.20;99.90
18807;DHT22;9531;52.030;4.380;2023-04-03T06:50:22;9.60;99.90
18807;DHT22;9531;52.030;4.380;2023-04-03T06:52:49;9.90;99.90
18807;DHT22;9531;52.030;4.380;2023-04-03T06:55:16;10.30;99.90
18807;DHT22;9531;52.030;4.380;2023-04-03T06:57:43;10.60;99.90
18807;DHT22;9531;52.030;4.380;2023-04-03T07:00:13;11.00;99.90
18807;DHT22;9531;52.030;4.380;2023-04-03T07:02:40;11.30;99.90
18807;DHT22;9531;52.030;4.380;2023-04-03T07:05:07;11.60;99.90
18807;DHT22;9531;52.030;4.380;2023-04-03T07:07:35;11.90;99.90
18807;DHT22;9531;52.030;4.380;2023-04-03T07:10:04;12.20;99.90
18807;DHT22;9531;52.030;4.380;2023-04-03T07:12:31;12.50;99.90
18807;DHT22;9531;52.030;4.380;2023-04-03T07:14:58;12.90;99.90
18807;DHT22;9531;52.030;4.380;2023-04-03T07:17:28;13.20;99.90
18807;DHT22;9531;52.030;4.380;2023-04-03T07:19:55;13.50;99.90
18807;DHT22;9531;52.030;4.380;2023-04-03T07:22:22;13.80;99.90
18807;DHT22;9531;52.030;4.380;2023-04-03T07:24:48;14.10;99.90
18807;DHT22;9531;52.030;4.380;2023-04-03T07:27:16;14.40;99.90
18807;DHT22;9531;52.030;4.380;2023-04-03T07:29:43;14.70;99.90
18807;DHT22;9531;52.030;4.380;2023-04-03T07:32:11;14.90;99.90
18807;DHT22;9531;52.030;4.380;2023-04-03T07:34:40;15.20;99.90
18807;DHT22;9531;52.030;4.380;2023-04-03T07:37:07;15.50;99.90
18807;DHT22;9531;52.030;4.380;2023-04-03T07:39:35;15.70;99.90
18807;DHT22;9531;52.030;4.380;2023-04-03T07:42:02;15.80;99.90
18807;DHT22;9531;52.030;4.380;2023-04-03T07:44:29;16.00;99.90
18807;DHT22;9531;52.030;4.380;2023-04-03T07:46:56;16.20;99.90
18807;DHT22;9531;52.030;4.380;2023-04-03T07:49:23;16.50;99.90
18807;DHT22;9531;52.030;4.380;2023-04-03T07:51:54;16.60;99.90
18807;DHT22;9531;52.030;4.380;2023-04-03T07:54:21;16.90;99.90
18807;DHT22;9531;52.030;4.380;2023-04-03T07:56:48;17.10;99.90
18807;DHT22;9531;52.030;4.380;2023-04-03T07:59:14;17.30;99.90
18807;DHT22;9531;52.030;4.380;2023-04-03T08:01:41;17.40;99.90
18807;DHT22;9531;52.030;4.380;2023-04-03T08:04:09;17.60;99.90
18807;DHT22;9531;52.030;4.380;2023-04-03T08:06:37;17.80;99.90
18807;DHT22;9531;52.030;4.380;2023-04-03T08:09:05;17.90;99.90
18807;DHT22;9531;52.030;4.380;2023-04-03T08:11:32;18.10;99.90
18807;DHT22;9531;52.030;4.380;2023-04-03T08:13:59;18.30;99.90
18807;DHT22;9531;52.030;4.380;2023-04-03T08:16:29;18.50;99.90
18807;DHT22;9531;52.030;4.380;2023-04-03T08:18:55;18.70;99.90
18807;DHT22;9531;52.030;4.380;2023-04-03T08:21:22;18.80;99.90
18807;DHT22;9531;52.030;4.380;2023-04-03T08:23:50;18.90;99.90
18807;DHT22;9531;52.030;4.380;2023-04-03T08:26:20;19.00;99.90
18807;DHT22;9531;52.030;4.380;2023-04-03T08:28:48;19.20;99.90
18807;DHT22;9531;52.030;4.380;2023-04-03T08:31:17;19.30;99.90
18807;DHT22;9531;52.030;4.380;2023-04-03T08:33:45;19.40;99.90
18807;DHT22;9531;52.030;4.380;2023-04-03T08:36:20;19.50;99.90
18807;DHT22;9531;52.030;4.380;2023-04-03T08:38:47;19.50;99.90
18807;DHT22;9531;52.030;4.380;2023-04-03T08:41:26;19.60;99.90
18807;DHT22;9531;52.030;4.380;2023-04-03T08:44:01;19.70;99.90
18807;DHT22;9531;52.030;4.380;2023-04-03T08:46:40;19.80;99.90
18807;DHT22;9531;52.030;4.380;2023-04-03T08:49:14;20.00;99.90
18807;DHT22;9531;52.030;4.380;2023-04-03T08:51:47;20.10;99.90
18807;DHT22;9531;52.030;4.380;2023-04-03T08:54:22;20.20;99.90
18807;DHT22;9531;52.030;4.380;2023-04-03T08:56:53;20.30;99.90
18807;DHT22;9531;52.030;4.380;2023-04-03T08:59:26;20.50;99.90
18807;DHT22;9531;52.030;4.380;2023-04-03T09:01:54;20.60;99.90
18807;DHT22;9531;52.030;4.380;2023-04-03T09:04:30;20.80;99.90
18807;DHT22;9531;52.030;4.380;2023-04-03T09:07:03;20.90;99.90
18807;DHT22;9531;52.030;4.380;2023-04-03T09:09:35;21.00;99.90
18807;DHT22;9531;52.030;4.380;2023-04-03T09:12:16;21.00;99.90
18807;DHT22;9531;52.030;4.380;2023-04-03T09:14:53;21.20;99.90
18807;DHT22;9531;52.030;4.380;2023-04-03T09:17:30;21.20;99.90
18807;DHT22;9531;52.030;4.380;2023-04-03T09:20:09;21.30;99.90
18807;DHT22;9531;52.030;4.380;2023-04-03T09:22:42;21.40;99.90
18807;DHT22;9531;52.030;4.380;2023-04-03T09:25:13;21.40;99.90
18807;DHT22;9531;52.030;4.380;2023-04-03T09:27:43;21.50;99.90
18807;DHT22;9531;52.030;4.380;2023-04-03T09:30:13;21.50;99.90
18807;DHT22;9531;52.030;4.380;2023-04-03T09:32:41;21.40;99.90
18807;DHT22;9531;52.030;4.380;2023-04-03T09:35:18;21.30;99.90
18807;DHT22;9531;52.030;4.380;2023-04-03T09:37:47;21.40;99.90
18807;DHT22;9531;52.030;4.380;2023-04-03T09:40:33;21.30;99.90
18807;DHT22;9531;52.030;4.380;2023-04-03T09:43:22;21.40;99.90
18807;DHT22;9531;52.030;4.380;2023-04-03T09:45:50;21.30;99.90
18807;DHT22;9531;52.030;4.380;2023-04-03T09:48:20;21.30;99.90
18807;DHT22;9531;52.030;4.380;2023-04-03T09:51:08;21.30;99.90
18807;DHT22;9531;52.030;4.380;2023-04-03T09:53:43;21.40;99.90
18807;DHT22;9531;52.030;4.380;2023-04-03T09:56:20;21.40;99.90
18807;DHT22;9531;52.030;4.380;2023-04-03T09:58:51;21.30;99.90
18807;DHT22;9531;52.030;4.380;2023-04-03T10:01:26;21.30;99.90
18807;DHT22;9531;52.030;4.380;2023-04-03T10:04:06;21.40;99.90
18807;DHT22;9531;52.030;4.380;2023-04-03T10:06:36;21.40;99.90
18807;DHT22;9531;52.030;4.380;2023-04-03T10:09:16;21.40;99.90
18807;DHT22;9531;52.030;4.380;2023-04-03T10:11:58;21.40;99.90
18807;DHT22;9531;52.030;4.380;2023-04-03T10:14:27;21.40;99.90
18807;DHT22;9531;52.030;4.380;2023-04-03T10:17:00;21.60;99.90
18807;DHT22;9531;52.030;4.380;2023-04-03T10:19:34;21.70;99.90
18807;DHT22;9531;52.030;4.380;2023-04-03T10:22:16;21.80;99.90
18807;DHT22;9531;52.030;4.380;2023-04-03T10:24:52;21.90;99.90
18807;DHT22;9531;52.030;4.380;2023-04-03T10:27:30;21.90;99.90
18807;DHT22;9531;52.030;4.380;2023-04-03T10:30:07;21.90;99.90
18807;DHT22;9531;52.030;4.380;2023-04-03T10:32:52;21.90;99.90
18807;DHT22;9531;52.030;4.380;2023-04-03T10:35:35;22.00;99.90
18807;DHT22;9531;52.030;4.380;2023-04-03T10:38:09;22.00;99.90
18807;DHT22;9531;52.030;4.380;2023-04-03T10:40:44;22.00;99.90
18807;DHT22;9531;52.030;4.380;2023-04-03T10:43:18;22.10;99.90
18807;DHT22;9531;52.030;4.380;2023-04-03T10:46:02;22.20;99.90
18807;DHT22;9531;52.030;4.380;2023-04-03T10:48:43;22.30;99.90
18807;DHT22;9531;52.030;4.380;2023-04-03T10:51:22;22.40;99.90
18807;DHT22;9531;52.030;4.380;2023-04-03T10:53:56;22.50;99.90
18807;DHT22;9531;52.030;4.380;2023-04-03T10:56:31;22.50;99.90
18807;DHT22;9531;52.030;4.380;2023-04-03T10:59:03;22.50;99.90
18807;DHT22;9531;52.030;4.380;2023-04-03T11:01:38;22.60;99.90
18807;DHT22;9531;52.030;4.380;2023-04-03T11:04:07;22.60;99.90
18807;DHT22;9531;52.030;4.380;2023-04-03T11:06:39;22.70;99.90
18807;DHT22;9531;52.030;4.380;2023-04-03T11:09:16;22.70;99.90
18807;DHT22;9531;52.030;4.380;2023-04-03T11:11:55;22.80;99.90
18807;DHT22;9531;52.030;4.380;2023-04-03T11:14:26;23.00;99.90
18807;DHT22;9531;52.030;4.380;2023-04-03T11:17:04;23.10;99.90
18807;DHT22;9531;52.030;4.380;2023-04-03T11:19:35;23.20;99.90
18807;DHT22;9531;52.030;4.380;2023-04-03T11:22:12;23.30;99.90
18807;DHT22;9531;52.030;4.380;2023-04-03T11:24:43;23.40;99.90
18807;DHT22;9531;52.030;4.380;2023-04-03T11:27:17;23.50;99.90
18807;DHT22;9531;52.030;4.380;2023-04-03T11:29:54;23.50;99.90
18807;DHT22;9531;52.030;4.380;2023-04-03T11:32:44;23.60;99.90
18807;DHT22;9531;52.030;4.380;2023-04-03T11:35:16;23.60;99.90
18807;DHT22;9531;52.030;4.380;2023-04-03T11:37:47;23.50;99.90
18807;DHT22;9531;52.030;4.380;2023-04-03T11:40:24;23.50;99.90
18807;DHT22;9531;52.030;4.380;2023-04-03T11:42:54;23.50;99.90
18807;DHT22;9531;52.030;4.380;2023-04-03T11:45:36;23.40;99.90
18807;DHT22;9531;52.030;4.380;2023-04-03T11:48:07;23.30;99.90
18807;DHT22;9531;52.030;4.380;2023-04-03T11:50:54;23.30;99.90
18807;DHT22;9531;52.030;4.380;2023-04-03T11:53:30;23.30;99.90
18807;DHT22;9531;52.030;4.380;2023-04-03T11:58:40;23.40;99.90
18807;DHT22;9531;52.030;4.380;2023-04-03T12:01:53;23.40;99.90
18807;DHT22;9531;52.030;4.380;2023-04-03T12:04:21;23.40;99.90
18807;DHT22;9531;52.030;4.380;2023-04-03T12:07:13;23.50;99.90
18807;DHT22;9531;52.030;4.380;2023-04-03T12:12:56;23.50;99.90
18807;DHT22;9531;52.030;4.380;2023-04-03T12:15:44;23.50;99.90
18807;DHT22;9531;52.030;4.380;2023-04-03T12:18:41;23.40;99.90
18807;DHT22;9531;52.030;4.380;2023-04-03T12:21:09;23.40;99.90
18807;DHT22;9531;52.030;4.380;2023-04-03T12:23:54;23.40;99.90
18807;DHT22;9531;52.030;4.380;2023-04-03T12:26:24;23.50;99.90
18807;DHT22;9531;52.030;4.380;2023-04-03T12:28:55;23.60;99.90
18807;DHT22;9531;52.030;4.380;2023-04-03T12:31:25;23.60;99.90
18807;DHT22;9531;52.030;4.380;2023-04-03T12:34:12;23.70;99.90
18807;DHT22;9531;52.030;4.380;2023-04-03T12:36:49;23.80;99.90
18807;DHT22;9531;52.030;4.380;2023-04-03T12:39:42;23.80;99.90
18807;DHT22;9531;52.030;4.380;2023-04-03T12:42:25;23.80;99.90
18807;DHT22;9531;52.030;4.380;2023-04-03T12:44:59;23.90;99.90
18807;DHT22;9531;52.030;4.380;2023-04-03T12:47:32;23.90;99.90
18807;DHT22;9531;52.030;4.380;2023-04-03T12:50:04;23.80;99.90
18807;DHT22;9531;52.030;4.380;2023-04-03T12:52:37;23.80;99.90
18807;DHT22;9531;52.030;4.380;2023-04-03T12:55:15;23.80;99.90
18807;DHT22;9531;52.030;4.380;2023-04-03T12:57:43;23.70;99.90
18807;DHT22;9531;52.030;4.380;2023-04-03T13:00:22;23.70;99.90
18807;DHT22;9531;52.030;4.380;2023-04-03T13:02:49;23.70;99.90
18807;DHT22;9531;52.030;4.380;2023-04-03T13:05:18;23.80;99.90
18807;DHT22;9531;52.030;4.380;2023-04-03T13:07:50;23.80;99.90
18807;DHT22;9531;52.030;4.380;2023-04-03T13:10:19;23.80;99.90
18807;DHT22;9531;52.030;4.380;2023-04-03T13:12:50;23.70;99.90
18807;DHT22;9531;52.030;4.380;2023-04-03T13:15:22;23.60;99.90
18807;DHT22;9531;52.030;4.380;2023-04-03T13:17:54;23.70;99.90
18807;DHT22;9531;52.030;4.380;2023-04-03T13:20:25;23.60;99.90
18807;DHT22;9531;52.030;4.380;2023-04-03T13:22:57;23.60;99.90
18807;DHT22;9531;52.030;4.380;2023-04-03T13:25:28;23.60;99.90
18807;DHT22;9531;52.030;4.380;2023-04-03T13:27:58;23.50;99.90
18807;DHT22;9531;52.030;4.380;2023-04-03T13:30:34;23.50;99.90
18807;DHT22;9531;52.030;4.380;2023-04-03T13:33:05;23.50;99.90
18807;DHT22;9531;52.030;4.380;2023-04-03T13:35:36;23.50;99.90
18807;DHT22;9531;52.030;4.380;2023-04-03T13:38:20;23.60;99.90
18807;DHT22;9531;52.030;4.380;2023-04-03T13:40:49;23.60;99.90
18807;DHT22;9531;52.030;4.380;2023-04-03T13:43:21;23.50;99.90
18807;DHT22;9531;52.030;4.380;2023-04-03T13:45:58;23.50;99.90
18807;DHT22;9531;52.030;4.380;2023-04-03T13:48:25;23.30;99.90
18807;DHT22;9531;52.030;4.380;2023-04-03T13:50:59;23.40;99.90
18807;DHT22;9531;52.030;4.380;2023-04-03T13:53:28;23.40;99.90
18807;DHT22;9531;52.030;4.380;2023-04-03T13:55:59;23.40;99.90
18807;DHT22;9531;52.030;4.380;2023-04-03T13:58:31;23.40;99.90
18807;DHT22;9531;52.030;4.380;2023-04-03T14:01:06;23.40;99.90
18807;DHT22;9531;52.030;4.380;2023-04-03T14:03:40;23.30;99.90
18807;DHT22;9531;52.030;4.380;2023-04-03T14:06:11;23.10;99.90
18807;DHT22;9531;52.030;4.380;2023-04-03T14:08:39;23.10;99.90
18807;DHT22;9531;52.030;4.380;2023-04-03T14:11:11;23.10;99.90
18807;DHT22;9531;52.030;4.380;2023-04-03T14:13:40;23.00;99.90
18807;DHT22;9531;52.030;4.380;2023-04-03T14:16:11;23.10;99.90
18807;DHT22;9531;52.030;4.380;2023-04-03T14:18:40;23.10;99.90
18807;DHT22;9531;52.030;4.380;2023-04-03T14:21:11;23.00;99.90
18807;DHT22;9531;52.030;4.380;2023-04-03T14:23:37;23.00;99.90
18807;DHT22;9531;52.030;4.380;2023-04-03T14:26:11;22.80;99.90
18807;DHT22;9531;52.030;4.380;2023-04-03T14:28:48;22.80;99.90
18807;DHT22;9531;52.030;4.380;2023-04-03T14:31:16;22.80;99.90
18807;DHT22;9531;52.030;4.380;2023-04-03T14:33:49;22.70;99.90
18807;DHT22;9531;52.030;4.380;2023-04-03T14:36:20;22.70;99.90
18807;DHT22;9531;52.030;4.380;2023-04-03T14:38:47;22.80;99.90
18807;DHT22;9531;52.030;4.380;2023-04-03T14:41:17;22.80;99.90
18807;DHT22;9531;52.030;4.380;2023-04-03T14:43:45;22.80;99.90
18807;DHT22;9531;52.030;4.380;2023-04-03T14:46:14;22.80;99.90
18807;DHT22;9531;52.030;4.380;2023-04-03T14:48:41;22.70;99.90
18807;DHT22;9531;52.030;4.380;2023-04-03T14:51:10;22.70;99.90
18807;DHT22;9531;52.030;4.380;2023-04-03T14:53:39;22.70;99.90
18807;DHT22;9531;52.030;4.380;2023-04-03T14:56:12;22.70;99.90
18807;DHT22;9531;52.030;4.380;2023-04-03T14:58:39;22.60;99.90
18807;DHT22;9531;52.030;4.380;2023-04-03T15:01:06;22.60;99.90
18807;DHT22;9531;52.030;4.380;2023-04-03T15:03:34;22.60;99.90
18807;DHT22;9531;52.030;4.380;2023-04-03T15:06:01;22.60;99.90
18807;DHT22;9531;52.030;4.380;2023-04-03T15:08:28;22.50;99.90
18807;DHT22;9531;52.030;4.380;2023-04-03T15:10:58;22.40;99.90
18807;DHT22;9531;52.030;4.380;2023-04-03T15:13:26;22.40;99.90
18807;DHT22;9531;52.030;4.380;2023-04-03T15:15:53;22.40;99.90
18807;DHT22;9531;52.030;4.380;2023-04-03T15:18:22;22.20;99.90
18807;DHT22;9531;52.030;4.380;2023-04-03T15:20:52;22.20;99.90
18807;DHT22;9531;52.030;4.380;2023-04-03T15:23:19;22.00;99.90
18807;DHT22;9531;52.030;4.380;2023-04-03T15:25:55;22.00;99.90
18807;DHT22;9531;52.030;4.380;2023-04-03T15:28:28;21.90;99.90
18807;DHT22;9531;52.030;4.380;2023-04-03T15:30:56;21.70;99.90
18807;DHT22;9531;52.030;4.380;2023-04-03T15:33:24;21.60;99.90
18807;DHT22;9531;52.030;4.380;2023-04-03T15:35:51;21.50;99.90
18807;DHT22;9531;52.030;4.380;2023-04-03T15:38:18;21.30;99.90
18807;DHT22;9531;52.030;4.380;2023-04-03T15:40:45;21.20;99.90
18807;DHT22;9531;52.030;4.380;2023-04-03T15:43:13;21.10;99.90
18807;DHT22;9531;52.030;4.380;2023-04-03T15:45:44;20.90;99.90
18807;DHT22;9531;52.030;4.380;2023-04-03T15:48:11;20.70;99.90
18807;DHT22;9531;52.030;4.380;2023-04-03T15:50:41;20.60;99.90
18807;DHT22;9531;52.030;4.380;2023-04-03T15:53:08;20.40;99.90
18807;DHT22;9531;52.030;4.380;2023-04-03T15:55:37;20.10;99.90
18807;DHT22;9531;52.030;4.380;2023-04-03T15:58:04;19.80;99.90
18807;DHT22;9531;52.030;4.380;2023-04-03T16:00:31;19.70;99.90
18807;DHT22;9531;52.030;4.380;2023-04-03T16:03:04;19.50;99.90
18807;DHT22;9531;52.030;4.380;2023-04-03T16:05:32;19.30;99.90
18807;DHT22;9531;52.030;4.380;2023-04-03T16:08:02;19.00;99.90
18807;DHT22;9531;52.030;4.380;2023-04-03T16:10:29;18.80;99.90
18807;DHT22;9531;52.030;4.380;2023-04-03T16:12:58;18.70;99.90
18807;DHT22;9531;52.030;4.380;2023-04-03T16:15:29;18.50;99.90
18807;DHT22;9531;52.030;4.380;2023-04-03T16:17:57;18.30;99.90
18807;DHT22;9531;52.030;4.380;2023-04-03T16:20:26;18.00;99.90
18807;DHT22;9531;52.030;4.380;2023-04-03T16:22:56;17.90;99.90